sensor_id;sensor_type;location;lat;lon;timestamp;P1;durP1;ratioP1;P2;durP2;ratioP2
26040;SDS011;13816;53.628;9.950;2024-02-28T00:00:46;35.80;;;28.13;;
26040;SDS011;13816;53.628;9.950;2024-02-28T00:03:34;36.13;;;30.00;;
26040;SDS011;13816;53.628;9.950;2024-02-28T00:06:45;38.57;;;30.90;;
26040;SDS011;13816;53.628;9.950;2024-02-28T00:13:08;40.70;;;30.47;;
26040;SDS011;13816;53.628;9.950;2024-02-28T00:19:31;44.77;;;33.97;;
26040;SDS011;13816;53.628;9.950;2024-02-28T00:22:57;46.70;;;32.93;;
26040;SDS011;13816;53.628;9.950;2024-02-28T00:26:05;42.67;;;33.37;;
26040;SDS011;13816;53.628;9.950;2024-02-28T00:32:49;43.03;;;33.27;;
26040;SDS011;13816;53.628;9.950;2024-02-28T00:36:51;55.50;;;34.90;;
26040;SDS011;13816;53.628;9.950;2024-02-28T00:40:16;42.43;;;32.37;;
26040;SDS011;13816;53.628;9.950;2024-02-28T00:43:20;42.03;;;29.33;;
26040;SDS011;13816;53.628;9.950;2024-02-28T00:46:32;44.30;;;31.40;;
26040;SDS011;13816;53.628;9.950;2024-02-28T00:49:17;43.40;;;31.60;;
26040;SDS011;13816;53.628;9.950;2024-02-28T00:52:10;43.50;;;31.67;;
26040;SDS011;13816;53.628;9.950;2024-02-28T00:54:57;43.43;;;30.70;;
26040;SDS011;13816;53.628;9.950;2024-02-28T00:58:03;44.73;;;32.00;;
26040;SDS011;13816;53.628;9.950;2024-02-28T01:01:25;43.20;;;32.10;;
26040;SDS011;13816;53.628;9.950;2024-02-28T01:04:51;42.23;;;30.83;;
26040;SDS011;13816;53.628;9.950;2024-02-28T01:07:59;44.17;;;30.10;;
26040;SDS011;13816;53.628;9.950;2024-02-28T01:11:22;43.80;;;31.90;;
26040;SDS011;13816;53.628;9.950;2024-02-28T01:14:01;40.40;;;29.17;;
26040;SDS011;13816;53.628;9.950;2024-02-28T01:16:54;41.13;;;29.80;;
26040;SDS011;13816;53.628;9.950;2024-02-28T01:20:06;38.30;;;28.80;;
26040;SDS011;13816;53.628;9.950;2024-02-28T01:22:47;44.20;;;31.90;;
26040;SDS011;13816;53.628;9.950;2024-02-28T01:26:00;42.20;;;30.90;;
26040;SDS011;13816;53.628;9.950;2024-02-28T01:29:11;43.60;;;31.53;;
26040;SDS011;13816;53.628;9.950;2024-02-28T01:32:05;41.77;;;29.80;;
26040;SDS011;13816;53.628;9.950;2024-02-28T01:34:39;42.17;;;30.87;;
26040;SDS011;13816;53.628;9.950;2024-02-28T01:37:55;40.10;;;28.17;;
26040;SDS011;13816;53.628;9.950;2024-02-28T01:40:55;42.60;;;30.97;;
26040;SDS011;13816;53.628;9.950;2024-02-28T01:43:22;44.77;;;30.90;;
26040;SDS011;13816;53.628;9.950;2024-02-28T01:45:50;40.43;;;29.27;;
26040;SDS011;13816;53.628;9.950;2024-02-28T01:48:17;40.03;;;30.20;;
26040;SDS011;13816;53.628;9.950;2024-02-28T01:50:45;38.80;;;28.40;;
26040;SDS011;13816;53.628;9.950;2024-02-28T01:53:13;40.77;;;29.57;;
26040;SDS011;13816;53.628;9.950;2024-02-28T01:55:42;37.50;;;27.60;;
26040;SDS011;13816;53.628;9.950;2024-02-28T01:58:10;36.40;;;27.30;;
26040;SDS011;13816;53.628;9.950;2024-02-28T02:00:38;33.60;;;25.20;;
26040;SDS011;13816;53.628;9.950;2024-02-28T02:03:05;36.20;;;26.93;;
26040;SDS011;13816;53.628;9.950;2024-02-28T02:05:33;37.70;;;27.60;;
26040;SDS011;13816;53.628;9.950;2024-02-28T02:08:00;37.43;;;26.37;;
26040;SDS011;13816;53.628;9.950;2024-02-28T02:10:28;37.07;;;26.60;;
26040;SDS011;13816;53.628;9.950;2024-02-28T02:13:03;41.70;;;27.33;;
26040;SDS011;13816;53.628;9.950;2024-02-28T02:15:31;39.73;;;26.63;;
26040;SDS011;13816;53.628;9.950;2024-02-28T02:17:58;37.50;;;25.53;;
26040;SDS011;13816;53.628;9.950;2024-02-28T02:20:26;36.80;;;26.17;;
26040;SDS011;13816;53.628;9.950;2024-02-28T02:22:53;40.03;;;28.13;;
26040;SDS011;13816;53.628;9.950;2024-02-28T02:25:20;36.67;;;26.63;;
26040;SDS011;13816;53.628;9.950;2024-02-28T02:27:48;36.87;;;24.87;;
26040;SDS011;13816;53.628;9.950;2024-02-28T02:30:16;39.90;;;27.40;;
26040;SDS011;13816;53.628;9.950;2024-02-28T02:32:43;35.03;;;25.23;;
26040;SDS011;13816;53.628;9.950;2024-02-28T02:35:11;35.17;;;25.00;;
26040;SDS011;13816;53.628;9.950;2024-02-28T02:37:42;38.67;;;25.23;;
26040;SDS011;13816;53.628;9.950;2024-02-28T02:40:12;34.30;;;24.33;;
26040;SDS011;13816;53.628;9.950;2024-02-28T02:42:39;34.00;;;23.90;;
26040;SDS011;13816;53.628;9.950;2024-02-28T02:45:07;35.67;;;25.80;;
26040;SDS011;13816;53.628;9.950;2024-02-28T02:47:34;36.43;;;25.23;;
26040;SDS011;13816;53.628;9.950;2024-02-28T02:50:02;36.10;;;26.40;;
26040;SDS011;13816;53.628;9.950;2024-02-28T02:52:30;34.40;;;23.90;;
26040;SDS011;13816;53.628;9.950;2024-02-28T02:54:57;31.63;;;23.93;;
26040;SDS011;13816;53.628;9.950;2024-02-28T02:57:25;35.17;;;24.20;;
26040;SDS011;13816;53.628;9.950;2024-02-28T02:59:52;34.73;;;24.90;;
26040;SDS011;13816;53.628;9.950;2024-02-28T03:02:20;36.60;;;24.23;;
26040;SDS011;13816;53.628;9.950;2024-02-28T03:04:47;37.23;;;25.17;;
26040;SDS011;13816;53.628;9.950;2024-02-28T03:07:15;34.30;;;23.60;;
26040;SDS011;13816;53.628;9.950;2024-02-28T03:09:42;36.90;;;25.17;;
26040;SDS011;13816;53.628;9.950;2024-02-28T03:12:10;35.77;;;25.30;;
26040;SDS011;13816;53.628;9.950;2024-02-28T03:14:37;33.47;;;24.13;;
26040;SDS011;13816;53.628;9.950;2024-02-28T03:17:05;36.50;;;26.20;;
26040;SDS011;13816;53.628;9.950;2024-02-28T03:19:32;36.60;;;24.70;;
26040;SDS011;13816;53.628;9.950;2024-02-28T03:22:01;34.67;;;23.43;;
26040;SDS011;13816;53.628;9.950;2024-02-28T03:24:29;35.80;;;23.63;;
26040;SDS011;13816;53.628;9.950;2024-02-28T03:26:57;37.20;;;23.53;;
26040;SDS011;13816;53.628;9.950;2024-02-28T03:29:24;33.90;;;23.37;;
26040;SDS011;13816;53.628;9.950;2024-02-28T03:31:51;39.77;;;24.13;;
26040;SDS011;13816;53.628;9.950;2024-02-28T03:34:19;32.00;;;22.67;;
26040;SDS011;13816;53.628;9.950;2024-02-28T03:36:46;34.97;;;23.77;;
26040;SDS011;13816;53.628;9.950;2024-02-28T03:39:14;33.90;;;23.30;;
26040;SDS011;13816;53.628;9.950;2024-02-28T03:41:42;38.70;;;25.33;;
26040;SDS011;13816;53.628;9.950;2024-02-28T03:44:09;32.13;;;22.57;;
26040;SDS011;13816;53.628;9.950;2024-02-28T03:46:38;36.00;;;23.57;;
26040;SDS011;13816;53.628;9.950;2024-02-28T03:49:06;33.07;;;22.93;;
26040;SDS011;13816;53.628;9.950;2024-02-28T03:51:38;32.97;;;22.53;;
26040;SDS011;13816;53.628;9.950;2024-02-28T03:54:07;30.70;;;21.43;;
26040;SDS011;13816;53.628;9.950;2024-02-28T03:56:35;34.20;;;23.43;;
26040;SDS011;13816;53.628;9.950;2024-02-28T03:59:02;32.17;;;22.67;;
26040;SDS011;13816;53.628;9.950;2024-02-28T04:01:30;33.40;;;22.33;;
26040;SDS011;13816;53.628;9.950;2024-02-28T04:03:58;33.47;;;22.30;;
26040;SDS011;13816;53.628;9.950;2024-02-28T04:06:25;29.63;;;20.73;;
26040;SDS011;13816;53.628;9.950;2024-02-28T04:08:53;36.97;;;24.83;;
26040;SDS011;13816;53.628;9.950;2024-02-28T04:11:20;34.10;;;22.27;;
26040;SDS011;13816;53.628;9.950;2024-02-28T04:13:48;34.93;;;23.27;;
26040;SDS011;13816;53.628;9.950;2024-02-28T04:16:15;32.73;;;22.30;;
26040;SDS011;13816;53.628;9.950;2024-02-28T04:18:42;32.40;;;21.23;;
26040;SDS011;13816;53.628;9.950;2024-02-28T04:21:10;32.83;;;21.43;;
26040;SDS011;13816;53.628;9.950;2024-02-28T04:23:37;33.33;;;23.43;;
26040;SDS011;13816;53.628;9.950;2024-02-28T04:26:05;33.70;;;22.27;;
26040;SDS011;13816;53.628;9.950;2024-02-28T04:28:33;30.70;;;21.47;;
26040;SDS011;13816;53.628;9.950;2024-02-28T04:31:00;36.27;;;21.03;;
26040;SDS011;13816;53.628;9.950;2024-02-28T04:33:27;33.67;;;22.67;;
26040;SDS011;13816;53.628;9.950;2024-02-28T04:35:55;35.37;;;22.57;;
26040;SDS011;13816;53.628;9.950;2024-02-28T04:38:22;32.40;;;22.80;;
26040;SDS011;13816;53.628;9.950;2024-02-28T04:40:50;34.30;;;21.80;;
26040;SDS011;13816;53.628;9.950;2024-02-28T04:43:17;31.13;;;21.80;;
26040;SDS011;13816;53.628;9.950;2024-02-28T04:45:44;32.07;;;21.33;;
26040;SDS011;13816;53.628;9.950;2024-02-28T04:48:12;32.80;;;23.07;;
26040;SDS011;13816;53.628;9.950;2024-02-28T04:50:40;36.03;;;21.97;;
26040;SDS011;13816;53.628;9.950;2024-02-28T04:53:07;34.33;;;22.70;;
26040;SDS011;13816;53.628;9.950;2024-02-28T04:55:35;34.07;;;22.87;;
26040;SDS011;13816;53.628;9.950;2024-02-28T04:58:02;35.97;;;22.47;;
26040;SDS011;13816;53.628;9.950;2024-02-28T05:00:30;31.40;;;21.93;;
26040;SDS011;13816;53.628;9.950;2024-02-28T05:02:57;32.40;;;21.63;;
26040;SDS011;13816;53.628;9.950;2024-02-28T05:05:25;33.27;;;22.57;;
26040;SDS011;13816;53.628;9.950;2024-02-28T05:07:52;39.10;;;23.83;;
26040;SDS011;13816;53.628;9.950;2024-02-28T05:10:19;32.73;;;21.53;;
26040;SDS011;13816;53.628;9.950;2024-02-28T05:12:47;40.97;;;26.10;;
26040;SDS011;13816;53.628;9.950;2024-02-28T05:15:14;36.80;;;23.97;;
26040;SDS011;13816;53.628;9.950;2024-02-28T05:17:42;34.77;;;22.70;;
26040;SDS011;13816;53.628;9.950;2024-02-28T05:20:09;35.83;;;24.37;;
26040;SDS011;13816;53.628;9.950;2024-02-28T05:22:37;35.17;;;24.20;;
26040;SDS011;13816;53.628;9.950;2024-02-28T05:25:07;36.50;;;23.33;;
26040;SDS011;13816;53.628;9.950;2024-02-28T05:27:34;32.27;;;22.40;;
26040;SDS011;13816;53.628;9.950;2024-02-28T05:30:01;36.77;;;24.40;;
26040;SDS011;13816;53.628;9.950;2024-02-28T05:32:32;33.07;;;22.60;;
26040;SDS011;13816;53.628;9.950;2024-02-28T05:35:00;36.00;;;24.13;;
26040;SDS011;13816;53.628;9.950;2024-02-28T05:37:28;37.50;;;23.83;;
26040;SDS011;13816;53.628;9.950;2024-02-28T05:39:55;36.23;;;24.83;;
26040;SDS011;13816;53.628;9.950;2024-02-28T05:42:23;40.33;;;24.10;;
26040;SDS011;13816;53.628;9.950;2024-02-28T05:44:51;36.50;;;24.93;;
26040;SDS011;13816;53.628;9.950;2024-02-28T05:47:19;36.20;;;25.00;;
26040;SDS011;13816;53.628;9.950;2024-02-28T05:49:49;38.10;;;25.47;;
26040;SDS011;13816;53.628;9.950;2024-02-28T05:52:16;37.70;;;25.97;;
26040;SDS011;13816;53.628;9.950;2024-02-28T05:54:44;35.50;;;23.80;;
26040;SDS011;13816;53.628;9.950;2024-02-28T05:57:11;37.00;;;23.73;;
26040;SDS011;13816;53.628;9.950;2024-02-28T05:59:44;38.30;;;25.90;;
26040;SDS011;13816;53.628;9.950;2024-02-28T06:02:55;41.50;;;24.70;;
26040;SDS011;13816;53.628;9.950;2024-02-28T06:05:22;42.67;;;25.60;;
26040;SDS011;13816;53.628;9.950;2024-02-28T06:07:50;42.80;;;26.17;;
26040;SDS011;13816;53.628;9.950;2024-02-28T06:10:17;37.10;;;25.53;;
26040;SDS011;13816;53.628;9.950;2024-02-28T06:12:45;37.73;;;24.87;;
26040;SDS011;13816;53.628;9.950;2024-02-28T06:15:18;38.63;;;25.73;;
26040;SDS011;13816;53.628;9.950;2024-02-28T06:17:46;40.13;;;26.80;;
26040;SDS011;13816;53.628;9.950;2024-02-28T06:20:14;39.30;;;26.13;;
26040;SDS011;13816;53.628;9.950;2024-02-28T06:22:42;41.17;;;26.80;;
26040;SDS011;13816;53.628;9.950;2024-02-28T06:25:09;36.90;;;25.47;;
26040;SDS011;13816;53.628;9.950;2024-02-28T06:27:48;38.90;;;25.83;;
26040;SDS011;13816;53.628;9.950;2024-02-28T06:30:16;39.17;;;25.00;;
26040;SDS011;13816;53.628;9.950;2024-02-28T06:32:45;39.27;;;26.53;;
26040;SDS011;13816;53.628;9.950;2024-02-28T06:35:12;38.63;;;26.20;;
26040;SDS011;13816;53.628;9.950;2024-02-28T06:37:39;38.50;;;26.80;;
26040;SDS011;13816;53.628;9.950;2024-02-28T06:40:07;40.07;;;25.37;;
26040;SDS011;13816;53.628;9.950;2024-02-28T06:42:35;35.93;;;26.00;;
26040;SDS011;13816;53.628;9.950;2024-02-28T06:45:03;36.70;;;25.87;;
26040;SDS011;13816;53.628;9.950;2024-02-28T06:47:39;37.90;;;25.80;;
26040;SDS011;13816;53.628;9.950;2024-02-28T06:50:07;35.40;;;25.40;;
26040;SDS011;13816;53.628;9.950;2024-02-28T06:52:35;35.97;;;24.60;;
26040;SDS011;13816;53.628;9.950;2024-02-28T06:55:05;37.03;;;25.60;;
26040;SDS011;13816;53.628;9.950;2024-02-28T06:57:40;33.03;;;25.00;;
26040;SDS011;13816;53.628;9.950;2024-02-28T07:00:09;33.63;;;23.60;;
26040;SDS011;13816;53.628;9.950;2024-02-28T07:02:41;36.33;;;24.07;;
26040;SDS011;13816;53.628;9.950;2024-02-28T07:05:08;35.63;;;23.50;;
26040;SDS011;13816;53.628;9.950;2024-02-28T07:07:36;32.43;;;21.60;;
26040;SDS011;13816;53.628;9.950;2024-02-28T07:10:04;34.47;;;23.20;;
26040;SDS011;13816;53.628;9.950;2024-02-28T07:12:31;29.43;;;21.80;;
26040;SDS011;13816;53.628;9.950;2024-02-28T07:14:59;33.70;;;22.83;;
26040;SDS011;13816;53.628;9.950;2024-02-28T07:17:26;29.07;;;19.77;;
26040;SDS011;13816;53.628;9.950;2024-02-28T07:19:54;29.17;;;21.90;;
26040;SDS011;13816;53.628;9.950;2024-02-28T07:22:21;32.93;;;21.03;;
26040;SDS011;13816;53.628;9.950;2024-02-28T07:24:49;30.67;;;20.83;;
26040;SDS011;13816;53.628;9.950;2024-02-28T07:27:16;29.43;;;21.13;;
26040;SDS011;13816;53.628;9.950;2024-02-28T07:29:43;26.40;;;18.87;;
26040;SDS011;13816;53.628;9.950;2024-02-28T07:32:11;27.60;;;19.37;;
26040;SDS011;13816;53.628;9.950;2024-02-28T07:34:39;27.10;;;19.40;;
26040;SDS011;13816;53.628;9.950;2024-02-28T07:37:06;26.07;;;19.53;;
26040;SDS011;13816;53.628;9.950;2024-02-28T07:42:17;28.77;;;20.20;;
26040;SDS011;13816;53.628;9.950;2024-02-28T07:44:45;23.50;;;18.60;;
26040;SDS011;13816;53.628;9.950;2024-02-28T07:47:12;26.93;;;20.30;;
26040;SDS011;13816;53.628;9.950;2024-02-28T07:49:41;28.23;;;20.43;;
26040;SDS011;13816;53.628;9.950;2024-02-28T07:52:10;26.47;;;19.17;;
26040;SDS011;13816;53.628;9.950;2024-02-28T07:54:43;27.20;;;20.30;;
26040;SDS011;13816;53.628;9.950;2024-02-28T07:57:11;28.47;;;20.73;;
26040;SDS011;13816;53.628;9.950;2024-02-28T07:59:39;26.90;;;21.03;;
26040;SDS011;13816;53.628;9.950;2024-02-28T08:02:07;29.00;;;20.23;;
26040;SDS011;13816;53.628;9.950;2024-02-28T08:04:35;28.87;;;21.00;;
26040;SDS011;13816;53.628;9.950;2024-02-28T08:07:02;29.97;;;21.37;;
26040;SDS011;13816;53.628;9.950;2024-02-28T08:09:30;30.80;;;22.53;;
26040;SDS011;13816;53.628;9.950;2024-02-28T08:11:57;29.83;;;20.87;;
26040;SDS011;13816;53.628;9.950;2024-02-28T08:14:26;29.10;;;21.13;;
26040;SDS011;13816;53.628;9.950;2024-02-28T08:16:54;32.70;;;23.33;;
26040;SDS011;13816;53.628;9.950;2024-02-28T08:19:21;35.60;;;24.80;;
26040;SDS011;13816;53.628;9.950;2024-02-28T08:21:49;35.73;;;23.90;;
26040;SDS011;13816;53.628;9.950;2024-02-28T08:24:16;33.70;;;23.30;;
26040;SDS011;13816;53.628;9.950;2024-02-28T08:26:44;35.37;;;26.30;;
26040;SDS011;13816;53.628;9.950;2024-02-28T08:29:11;35.07;;;25.70;;
26040;SDS011;13816;53.628;9.950;2024-02-28T08:31:43;34.77;;;25.33;;
26040;SDS011;13816;53.628;9.950;2024-02-28T08:34:11;35.17;;;25.00;;
26040;SDS011;13816;53.628;9.950;2024-02-28T08:36:38;36.53;;;24.87;;
26040;SDS011;13816;53.628;9.950;2024-02-28T08:39:06;36.87;;;24.77;;
26040;SDS011;13816;53.628;9.950;2024-02-28T08:41:35;40.43;;;27.77;;
26040;SDS011;13816;53.628;9.950;2024-02-28T08:44:03;40.33;;;28.20;;
26040;SDS011;13816;53.628;9.950;2024-02-28T08:46:30;35.90;;;26.37;;
26040;SDS011;13816;53.628;9.950;2024-02-28T08:48:58;38.33;;;27.40;;
26040;SDS011;13816;53.628;9.950;2024-02-28T08:51:25;36.33;;;25.37;;
26040;SDS011;13816;53.628;9.950;2024-02-28T08:53:53;40.30;;;26.97;;
26040;SDS011;13816;53.628;9.950;2024-02-28T08:56:22;36.70;;;24.80;;
26040;SDS011;13816;53.628;9.950;2024-02-28T08:58:49;35.80;;;25.80;;
26040;SDS011;13816;53.628;9.950;2024-02-28T09:01:16;38.80;;;26.77;;
26040;SDS011;13816;53.628;9.950;2024-02-28T09:03:44;36.57;;;27.07;;
26040;SDS011;13816;53.628;9.950;2024-02-28T09:06:11;38.17;;;25.87;;
26040;SDS011;13816;53.628;9.950;2024-02-28T09:08:39;35.83;;;25.00;;
26040;SDS011;13816;53.628;9.950;2024-02-28T09:11:25;33.43;;;24.40;;
26040;SDS011;13816;53.628;9.950;2024-02-28T09:13:52;37.60;;;25.87;;
26040;SDS011;13816;53.628;9.950;2024-02-28T09:16:22;37.03;;;23.73;;
26040;SDS011;13816;53.628;9.950;2024-02-28T09:18:50;36.33;;;25.37;;
26040;SDS011;13816;53.628;9.950;2024-02-28T09:21:23;33.47;;;24.30;;
26040;SDS011;13816;53.628;9.950;2024-02-28T09:23:51;35.03;;;25.10;;
26040;SDS011;13816;53.628;9.950;2024-02-28T09:26:18;38.00;;;25.77;;
26040;SDS011;13816;53.628;9.950;2024-02-28T09:28:46;35.73;;;25.43;;
26040;SDS011;13816;53.628;9.950;2024-02-28T09:31:13;35.70;;;25.83;;
26040;SDS011;13816;53.628;9.950;2024-02-28T09:33:42;34.10;;;24.40;;
26040;SDS011;13816;53.628;9.950;2024-02-28T09:36:09;34.73;;;25.80;;
26040;SDS011;13816;53.628;9.950;2024-02-28T09:38:37;36.13;;;26.33;;
26040;SDS011;13816;53.628;9.950;2024-02-28T09:41:04;33.60;;;24.70;;
26040;SDS011;13816;53.628;9.950;2024-02-28T09:43:31;33.83;;;23.10;;
26040;SDS011;13816;53.628;9.950;2024-02-28T09:46:04;32.27;;;25.10;;
26040;SDS011;13816;53.628;9.950;2024-02-28T09:48:32;32.20;;;24.17;;
26040;SDS011;13816;53.628;9.950;2024-02-28T09:51:00;33.13;;;24.50;;
26040;SDS011;13816;53.628;9.950;2024-02-28T09:53:27;31.90;;;22.93;;
26040;SDS011;13816;53.628;9.950;2024-02-28T09:55:55;28.47;;;21.63;;
26040;SDS011;13816;53.628;9.950;2024-02-28T09:58:22;31.43;;;22.67;;
26040;SDS011;13816;53.628;9.950;2024-02-28T10:00:50;29.70;;;22.10;;
26040;SDS011;13816;53.628;9.950;2024-02-28T10:03:18;29.20;;;22.50;;
26040;SDS011;13816;53.628;9.950;2024-02-28T10:05:46;32.00;;;23.73;;
26040;SDS011;13816;53.628;9.950;2024-02-28T10:08:14;30.00;;;22.10;;
26040;SDS011;13816;53.628;9.950;2024-02-28T10:10:45;28.80;;;20.93;;
26040;SDS011;13816;53.628;9.950;2024-02-28T10:13:16;32.97;;;21.90;;
26040;SDS011;13816;53.628;9.950;2024-02-28T10:15:44;31.50;;;22.30;;
26040;SDS011;13816;53.628;9.950;2024-02-28T10:18:12;32.23;;;22.87;;
26040;SDS011;13816;53.628;9.950;2024-02-28T10:20:39;30.80;;;23.07;;
26040;SDS011;13816;53.628;9.950;2024-02-28T10:23:07;32.60;;;23.93;;
26040;SDS011;13816;53.628;9.950;2024-02-28T10:25:45;29.70;;;21.83;;
26040;SDS011;13816;53.628;9.950;2024-02-28T10:28:17;32.37;;;22.37;;
26040;SDS011;13816;53.628;9.950;2024-02-28T10:30:45;33.10;;;21.67;;
26040;SDS011;13816;53.628;9.950;2024-02-28T10:33:13;29.90;;;20.80;;
26040;SDS011;13816;53.628;9.950;2024-02-28T10:35:41;28.67;;;21.53;;
26040;SDS011;13816;53.628;9.950;2024-02-28T10:38:12;28.67;;;21.87;;
26040;SDS011;13816;53.628;9.950;2024-02-28T10:40:40;33.37;;;23.43;;
26040;SDS011;13816;53.628;9.950;2024-02-28T10:43:08;34.83;;;23.77;;
26040;SDS011;13816;53.628;9.950;2024-02-28T10:45:36;31.13;;;21.27;;
26040;SDS011;13816;53.628;9.950;2024-02-28T10:48:14;34.10;;;22.37;;
26040;SDS011;13816;53.628;9.950;2024-02-28T10:50:43;34.67;;;22.77;;
26040;SDS011;13816;53.628;9.950;2024-02-28T10:53:13;31.93;;;22.10;;
26040;SDS011;13816;53.628;9.950;2024-02-28T10:55:42;33.50;;;23.27;;
26040;SDS011;13816;53.628;9.950;2024-02-28T10:58:10;30.50;;;22.23;;
26040;SDS011;13816;53.628;9.950;2024-02-28T11:00:39;33.23;;;22.77;;
26040;SDS011;13816;53.628;9.950;2024-02-28T11:03:08;29.57;;;20.93;;
26040;SDS011;13816;53.628;9.950;2024-02-28T11:05:42;34.93;;;21.93;;
26040;SDS011;13816;53.628;9.950;2024-02-28T11:08:22;26.70;;;19.97;;
26040;SDS011;13816;53.628;9.950;2024-02-28T11:10:56;28.80;;;20.77;;
26040;SDS011;13816;53.628;9.950;2024-02-28T11:13:25;28.63;;;19.47;;
26040;SDS011;13816;53.628;9.950;2024-02-28T11:16:08;27.80;;;19.50;;
26040;SDS011;13816;53.628;9.950;2024-02-28T11:18:37;27.93;;;18.50;;
26040;SDS011;13816;53.628;9.950;2024-02-28T11:21:16;27.63;;;18.57;;
26040;SDS011;13816;53.628;9.950;2024-02-28T11:23:47;28.77;;;18.47;;
26040;SDS011;13816;53.628;9.950;2024-02-28T11:26:15;39.83;;;21.10;;
26040;SDS011;13816;53.628;9.950;2024-02-28T11:28:42;31.70;;;19.83;;
26040;SDS011;13816;53.628;9.950;2024-02-28T11:31:10;28.10;;;19.03;;
26040;SDS011;13816;53.628;9.950;2024-02-28T11:33:37;42.13;;;24.37;;
26040;SDS011;13816;53.628;9.950;2024-02-28T11:36:05;27.87;;;19.07;;
26040;SDS011;13816;53.628;9.950;2024-02-28T11:38:36;28.80;;;18.60;;
26040;SDS011;13816;53.628;9.950;2024-02-28T11:41:04;27.83;;;18.83;;
26040;SDS011;13816;53.628;9.950;2024-02-28T11:43:32;25.67;;;18.57;;
26040;SDS011;13816;53.628;9.950;2024-02-28T11:46:09;25.33;;;17.90;;
26040;SDS011;13816;53.628;9.950;2024-02-28T11:48:37;27.27;;;18.63;;
26040;SDS011;13816;53.628;9.950;2024-02-28T11:51:04;29.90;;;19.03;;
26040;SDS011;13816;53.628;9.950;2024-02-28T11:53:32;24.77;;;18.40;;
26040;SDS011;13816;53.628;9.950;2024-02-28T11:55:59;28.50;;;19.50;;
26040;SDS011;13816;53.628;9.950;2024-02-28T11:58:27;27.33;;;18.20;;
26040;SDS011;13816;53.628;9.950;2024-02-28T12:00:54;31.33;;;19.27;;
26040;SDS011;13816;53.628;9.950;2024-02-28T12:03:22;31.07;;;18.60;;
26040;SDS011;13816;53.628;9.950;2024-02-28T12:05:50;35.70;;;18.33;;
26040;SDS011;13816;53.628;9.950;2024-02-28T12:08:17;29.70;;;19.70;;
26040;SDS011;13816;53.628;9.950;2024-02-28T12:10:46;30.60;;;19.77;;
26040;SDS011;13816;53.628;9.950;2024-02-28T12:13:17;25.77;;;17.87;;
26040;SDS011;13816;53.628;9.950;2024-02-28T12:15:44;29.33;;;19.40;;
26040;SDS011;13816;53.628;9.950;2024-02-28T12:18:14;24.27;;;17.67;;
26040;SDS011;13816;53.628;9.950;2024-02-28T12:20:42;31.80;;;18.83;;
26040;SDS011;13816;53.628;9.950;2024-02-28T12:23:09;27.53;;;18.93;;
26040;SDS011;13816;53.628;9.950;2024-02-28T12:25:37;28.00;;;17.40;;
26040;SDS011;13816;53.628;9.950;2024-02-28T12:28:06;31.03;;;19.70;;
26040;SDS011;13816;53.628;9.950;2024-02-28T12:30:39;29.70;;;20.13;;
26040;SDS011;13816;53.628;9.950;2024-02-28T12:33:10;34.53;;;20.27;;
26040;SDS011;13816;53.628;9.950;2024-02-28T12:35:38;28.10;;;19.57;;
26040;SDS011;13816;53.628;9.950;2024-02-28T12:38:06;26.27;;;19.67;;
26040;SDS011;13816;53.628;9.950;2024-02-28T12:40:33;28.57;;;17.77;;
26040;SDS011;13816;53.628;9.950;2024-02-28T12:43:01;29.00;;;20.47;;
26040;SDS011;13816;53.628;9.950;2024-02-28T12:45:28;27.23;;;17.93;;
26040;SDS011;13816;53.628;9.950;2024-02-28T12:47:57;30.83;;;19.20;;
26040;SDS011;13816;53.628;9.950;2024-02-28T12:50:24;31.10;;;19.93;;
26040;SDS011;13816;53.628;9.950;2024-02-28T12:52:52;30.20;;;17.70;;
26040;SDS011;13816;53.628;9.950;2024-02-28T12:55:20;23.33;;;17.03;;
26040;SDS011;13816;53.628;9.950;2024-02-28T12:57:48;24.73;;;16.27;;
26040;SDS011;13816;53.628;9.950;2024-02-28T13:00:15;27.30;;;17.60;;
26040;SDS011;13816;53.628;9.950;2024-02-28T13:02:44;26.93;;;17.60;;
26040;SDS011;13816;53.628;9.950;2024-02-28T13:05:11;23.60;;;16.33;;
26040;SDS011;13816;53.628;9.950;2024-02-28T13:07:41;24.17;;;17.07;;
26040;SDS011;13816;53.628;9.950;2024-02-28T13:10:09;26.20;;;18.40;;
26040;SDS011;13816;53.628;9.950;2024-02-28T13:12:39;23.97;;;17.37;;
26040;SDS011;13816;53.628;9.950;2024-02-28T13:15:07;25.70;;;16.23;;
26040;SDS011;13816;53.628;9.950;2024-02-28T13:17:41;25.10;;;16.53;;
26040;SDS011;13816;53.628;9.950;2024-02-28T13:20:09;26.80;;;16.70;;
26040;SDS011;13816;53.628;9.950;2024-02-28T13:22:36;23.53;;;15.93;;
26040;SDS011;13816;53.628;9.950;2024-02-28T13:25:04;23.60;;;16.00;;
26040;SDS011;13816;53.628;9.950;2024-02-28T13:27:31;24.40;;;16.60;;
26040;SDS011;13816;53.628;9.950;2024-02-28T13:32:38;27.87;;;18.03;;
26040;SDS011;13816;53.628;9.950;2024-02-28T13:35:05;24.43;;;17.63;;
26040;SDS011;13816;53.628;9.950;2024-02-28T13:37:40;26.60;;;17.30;;
26040;SDS011;13816;53.628;9.950;2024-02-28T13:40:15;26.50;;;16.93;;
26040;SDS011;13816;53.628;9.950;2024-02-28T13:42:42;27.13;;;18.57;;
26040;SDS011;13816;53.628;9.950;2024-02-28T13:45:11;27.90;;;17.10;;
26040;SDS011;13816;53.628;9.950;2024-02-28T13:47:39;26.50;;;18.03;;
26040;SDS011;13816;53.628;9.950;2024-02-28T13:50:06;30.90;;;18.97;;
26040;SDS011;13816;53.628;9.950;2024-02-28T13:52:36;30.70;;;19.63;;
26040;SDS011;13816;53.628;9.950;2024-02-28T13:55:03;34.57;;;19.00;;
26040;SDS011;13816;53.628;9.950;2024-02-28T13:57:31;32.13;;;19.30;;
26040;SDS011;13816;53.628;9.950;2024-02-28T13:59:58;33.60;;;17.57;;
26040;SDS011;13816;53.628;9.950;2024-02-28T14:02:26;32.03;;;18.17;;
26040;SDS011;13816;53.628;9.950;2024-02-28T14:04:54;26.83;;;17.37;;
26040;SDS011;13816;53.628;9.950;2024-02-28T14:07:21;31.50;;;20.10;;
26040;SDS011;13816;53.628;9.950;2024-02-28T14:09:49;28.77;;;19.00;;
26040;SDS011;13816;53.628;9.950;2024-02-28T14:12:16;27.23;;;16.57;;
26040;SDS011;13816;53.628;9.950;2024-02-28T14:14:44;29.20;;;17.33;;
26040;SDS011;13816;53.628;9.950;2024-02-28T14:17:11;23.70;;;14.73;;
26040;SDS011;13816;53.628;9.950;2024-02-28T14:19:40;25.90;;;15.23;;
26040;SDS011;13816;53.628;9.950;2024-02-28T14:22:07;21.30;;;15.93;;
26040;SDS011;13816;53.628;9.950;2024-02-28T14:24:36;25.00;;;16.20;;
26040;SDS011;13816;53.628;9.950;2024-02-28T14:27:05;23.10;;;14.43;;
26040;SDS011;13816;53.628;9.950;2024-02-28T14:29:33;25.60;;;15.00;;
26040;SDS011;13816;53.628;9.950;2024-02-28T14:32:00;28.03;;;17.50;;
26040;SDS011;13816;53.628;9.950;2024-02-28T14:34:28;24.03;;;16.57;;
26040;SDS011;13816;53.628;9.950;2024-02-28T14:36:58;27.53;;;17.53;;
26040;SDS011;13816;53.628;9.950;2024-02-28T14:39:25;21.20;;;15.40;;
26040;SDS011;13816;53.628;9.950;2024-02-28T14:41:53;23.77;;;15.53;;
26040;SDS011;13816;53.628;9.950;2024-02-28T14:44:21;28.07;;;15.73;;
26040;SDS011;13816;53.628;9.950;2024-02-28T14:46:48;22.60;;;14.70;;
26040;SDS011;13816;53.628;9.950;2024-02-28T14:49:16;23.77;;;14.70;;
26040;SDS011;13816;53.628;9.950;2024-02-28T14:51:43;23.13;;;15.33;;
26040;SDS011;13816;53.628;9.950;2024-02-28T14:54:15;18.63;;;13.50;;
26040;SDS011;13816;53.628;9.950;2024-02-28T14:56:42;21.87;;;13.57;;
26040;SDS011;13816;53.628;9.950;2024-02-28T14:59:10;18.53;;;12.37;;
26040;SDS011;13816;53.628;9.950;2024-02-28T15:01:37;19.87;;;13.27;;